Time;durP1;ratioP1;P1;durP2;ratioP2;P2;SDS_P1;SDS_P2;PMS_P1;PMS_P2;Temp;Humidity;BMP_temperature;BMP_pressure;BME280_temperature;BME280_humidity;BME280_pressure;Samples;Min_cycle;Max_cycle;Signal;HPM_P1;HPM_P2
2024/03/13 00:00:43;;;;;;;20.20;16.00;;;;;;;9.49;100.00;100156.37;177879;1256;46023;-79
2024/03/13 00:05:06;;;;;;;16.00;12.20;;;;;;;9.41;100.00;100159.06;178724;1256;45993;-80
2024/03/13 00:09:08;;;;;;;21.10;15.10;;;;;;;9.28;100.00;100158.35;178148;1256;44911;-80
2024/03/13 00:13:10;;;;;;;17.30;12.10;;;;;;;9.18;100.00;100158.70;178097;1256;45983;-79
2024/03/13 00:17:12;;;;;;;17.70;13.50;;;;;;;9.10;100.00;100156.84;179392;1257;61158;-79
2024/03/13 00:21:14;;;;;;;19.60;14.30;;;;;;;9.06;100.00;100159.86;181225;1256;43818;-79
2024/03/13 00:25:15;;;;;;;20.40;13.70;;;;;;;9.02;100.00;100158.77;178674;1255;46037;-79
2024/03/13 00:29:17;;;;;;;17.60;13.50;;;;;;;8.95;100.00;100162.45;178439;1256;46130;-79
2024/03/13 00:33:19;;;;;;;18.70;14.10;;;;;;;8.87;100.00;100164.85;179640;1257;45952;-79
2024/03/13 00:37:21;;;;;;;20.60;14.00;;;;;;;8.75;100.00;100163.98;178530;1259;57919;-79
2024/03/13 00:41:23;;;;;;;17.10;13.80;;;;;;;8.59;100.00;100164.80;179227;1256;46065;-79
2024/03/13 00:45:24;;;;;;;23.50;14.60;;;;;;;8.44;100.00;100165.94;180216;1256;44075;-79
2024/03/13 00:49:27;;;;;;;18.80;13.50;;;;;;;8.22;100.00;100164.70;179191;1256;46262;-79
2024/03/13 00:53:29;;;;;;;20.20;14.80;;;;;;;7.99;100.00;100160.70;179627;1256;45826;-79
2024/03/13 00:57:31;;;;;;;23.60;15.60;;;;;;;7.82;100.00;100162.04;179003;1257;59246;-80
2024/03/13 01:01:33;;;;;;;23.00;15.50;;;;;;;7.78;100.00;100165.41;179088;1256;46012;-80
2024/03/13 01:05:35;;;;;;;19.80;14.90;;;;;;;7.77;100.00;100160.36;178042;1256;45900;-80
2024/03/13 01:09:38;;;;;;;17.90;15.30;;;;;;;7.77;100.00;100160.02;177911;1256;45992;-80
2024/03/13 01:13:40;;;;;;;35.50;24.40;;;;;;;7.72;100.00;100164.61;178478;1256;45998;-80
2024/03/13 01:17:42;;;;;;;30.40;22.90;;;;;;;7.60;100.00;100161.53;176227;1256;58969;-79
2024/03/13 01:21:48;;;;;;;34.10;25.50;;;;;;;7.53;100.00;100161.69;177814;1256;46010;-79
2024/03/13 01:25:53;;;;;;;30.80;19.70;;;;;;;7.48;100.00;100164.49;179473;1256;46035;-79
2024/03/13 01:29:55;;;;;;;36.80;21.90;;;;;;;7.41;100.00;100161.79;179925;1256;46096;-78
2024/03/13 01:33:56;;;;;;;21.10;17.40;;;;;;;7.34;100.00;100164.07;177179;1256;46248;-79
2024/03/13 01:37:58;;;;;;;28.30;18.30;;;;;;;7.31;100.00;100165.70;178758;1256;57901;-79
2024/03/13 01:55:13;;;;;;;28.80;18.60;;;;;;;6.55;100.00;100166.92;178978;1256;46287;-79
2024/03/13 01:59:23;;;;;;;25.70;16.60;;;;;;;6.41;100.00;100164.33;179157;1257;57989;-79
2024/03/13 02:03:27;;;;;;;23.10;16.30;;;;;;;6.29;100.00;100167.79;178674;1256;46064;-79
2024/03/13 02:07:29;;;;;;;25.50;18.70;;;;;;;6.18;100.00;100167.10;177915;1260;46510;-80
2024/03/13 02:11:31;;;;;;;26.20;18.20;;;;;;;6.07;100.00;100171.83;178162;1256;45918;-80
2024/03/13 02:15:34;;;;;;;23.90;18.10;;;;;;;6.00;100.00;100170.33;179239;1256;45977;-80
2024/03/13 02:19:37;;;;;;;31.20;19.20;;;;;;;5.93;100.00;100173.92;177962;1257;57330;-79
2024/03/13 02:23:39;;;;;;;27.20;19.10;;;;;;;5.88;100.00;100169.84;179223;1256;46109;-80
2024/03/13 02:27:41;;;;;;;25.00;17.40;;;;;;;5.87;100.00;100166.41;178753;1256;45888;-79
2024/03/13 02:31:42;;;;;;;23.90;19.30;;;;;;;5.90;100.00;100167.80;178640;1258;46200;-79
2024/03/13 02:35:44;;;;;;;29.50;20.90;;;;;;;5.99;100.00;100168.29;177759;1260;46033;-79
2024/03/13 02:39:46;;;;;;;25.30;19.90;;;;;;;6.06;100.00;100172.05;178387;1256;58000;-79
2024/03/13 02:43:48;;;;;;;26.00;18.00;;;;;;;6.12;100.00;100171.69;178439;1256;46834;-79
2024/03/13 02:47:49;;;;;;;28.10;19.40;;;;;;;6.11;100.00;100173.71;178249;1256;46055;-80
2024/03/13 02:51:51;;;;;;;26.90;18.00;;;;;;;6.03;100.00;100175.06;179175;1256;45975;-79
2024/03/13 02:55:53;;;;;;;33.30;20.30;;;;;;;5.99;100.00;100178.30;179673;1256;45968;-80
2024/03/13 02:59:55;;;;;;;27.40;19.90;;;;;;;6.04;100.00;100172.75;179488;1256;58072;-80
2024/03/13 03:03:58;;;;;;;29.60;19.80;;;;;;;6.12;100.00;100177.69;177420;1256;46101;-79
2024/03/13 03:08:00;;;;;;;32.80;22.90;;;;;;;6.21;100.00;100182.02;178957;1256;46083;-80
2024/03/13 03:12:08;;;;;;;46.30;34.40;;;;;;;6.32;100.00;100181.15;178467;1256;45971;-79
2024/03/13 03:16:11;;;;;;;41.20;32.10;;;;;;;6.42;100.00;100185.60;178304;1256;46679;-79
2024/03/13 03:20:13;;;;;;;35.80;27.30;;;;;;;6.49;100.00;100189.36;177732;1256;58709;-79
2024/03/13 03:24:15;;;;;;;34.30;25.00;;;;;;;6.54;100.00;100188.31;179528;1256;45997;-80
2024/03/13 03:28:16;;;;;;;32.70;25.30;;;;;;;6.63;100.00;100186.49;177486;1256;44579;-79
2024/03/13 03:32:21;;;;;;;31.60;21.90;;;;;;;6.70;100.00;100185.52;178044;1256;45973;-79
2024/03/13 03:36:23;;;;;;;31.20;21.40;;;;;;;6.72;100.00;100186.11;177122;1256;46112;-79
2024/03/13 03:40:25;;;;;;;27.30;20.70;;;;;;;6.72;100.00;100192.63;178259;1256;57896;-79
2024/03/13 03:44:29;;;;;;;32.20;21.50;;;;;;;6.51;100.00;100199.07;177546;1260;46474;-79
2024/03/13 03:48:31;;;;;;;32.40;21.10;;;;;;;6.40;100.00;100195.21;177152;1256;46097;-79
2024/03/13 03:52:34;;;;;;;30.20;20.80;;;;;;;6.42;100.00;100193.00;177250;1259;46375;-79
2024/03/13 03:56:38;;;;;;;28.00;20.60;;;;;;;6.42;100.00;100189.45;178135;1256;46183;-80
2024/03/13 04:00:41;;;;;;;32.30;22.00;;;;;;;6.44;100.00;100188.45;178258;1256;59723;-79
2024/03/13 04:04:43;;;;;;;33.80;20.90;;;;;;;6.47;100.00;100190.02;177528;1259;46144;-79
2024/03/13 04:08:45;;;;;;;27.30;19.10;;;;;;;6.36;100.00;100196.55;177761;1261;46455;-79
2024/03/13 04:12:49;;;;;;;28.10;20.60;;;;;;;6.27;100.00;100201.89;178236;1256;46064;-83
2024/03/13 04:16:51;;;;;;;32.40;20.30;;;;;;;6.13;100.00;100206.70;177464;1256;46019;-83
2024/03/13 04:20:52;;;;;;;31.30;21.60;;;;;;;6.02;100.00;100207.70;176721;1257;57969;-83
2024/03/13 04:24:54;;;;;;;36.00;22.90;;;;;;;6.04;100.00;100210.95;176497;1257;46106;-82
2024/03/13 04:28:59;;;;;;;32.30;21.80;;;;;;;5.95;100.00;100212.17;177025;1259;45882;-83
2024/03/13 04:33:01;;;;;;;34.20;24.60;;;;;;;5.90;100.00;100207.78;177260;1256;46125;-81
2024/03/13 04:37:03;;;;;;;37.50;26.20;;;;;;;5.89;100.00;100210.44;176896;1255;46013;-82
2024/03/13 04:41:09;;;;;;;33.30;23.30;;;;;;;5.87;100.00;100216.89;176735;1260;60024;-82
2024/03/13 04:45:11;;;;;;;46.60;26.80;;;;;;;5.93;100.00;100223.73;176912;1256;46002;-83
2024/03/13 04:49:12;;;;;;;35.60;24.70;;;;;;;5.98;100.00;100226.23;176954;1256;46118;-82
2024/03/13 04:53:19;;;;;;;34.90;24.20;;;;;;;6.05;100.00;100226.05;177622;1260;46099;-82
2024/03/13 04:57:21;;;;;;;35.80;25.30;;;;;;;6.11;100.00;100229.50;176950;1258;46040;-82
2024/03/13 05:01:22;;;;;;;37.70;24.90;;;;;;;6.16;100.00;100235.71;177275;1258;59286;-82
2024/03/13 05:05:24;;;;;;;34.30;24.90;;;;;;;6.25;100.00;100233.20;176358;1257;46650;-83
2024/03/13 05:09:28;;;;;;;31.50;24.90;;;;;;;6.30;100.00;100234.80;176838;1256;46126;-84
2024/03/13 05:13:31;;;;;;;41.90;26.40;;;;;;;6.40;100.00;100238.92;177080;1257;46110;-82
2024/03/13 05:17:39;;;;;;;37.80;26.10;;;;;;;6.46;100.00;100242.78;176594;1256;46139;-82
2024/03/13 05:21:41;;;;;;;32.60;24.00;;;;;;;6.56;100.00;100249.17;176791;1257;58305;-82
2024/03/13 05:25:43;;;;;;;38.20;25.80;;;;;;;6.63;100.00;100250.66;176635;1256;46083;-82
2024/03/13 05:29:45;;;;;;;41.70;26.50;;;;;;;6.69;100.00;100250.59;177216;1256;46103;-83
2024/03/13 05:33:47;;;;;;;42.40;29.70;;;;;;;6.72;100.00;100254.27;178372;1256;46185;-83
2024/03/13 05:37:49;;;;;;;30.60;22.60;;;;;;;6.76;100.00;100257.27;177556;1256;46080;-83
2024/03/13 05:41:51;;;;;;;34.50;23.70;;;;;;;6.77;100.00;100255.16;176684;1261;59389;-84
2024/03/13 05:45:53;;;;;;;39.60;24.00;;;;;;;6.79;100.00;100260.35;176734;1256;46417;-83
2024/03/13 05:49:55;;;;;;;35.90;26.80;;;;;;;6.79;100.00;100258.98;176720;1256;46097;-83
2024/03/13 05:53:57;;;;;;;41.60;25.60;;;;;;;6.82;100.00;100254.32;176484;1257;46137;-83
2024/03/13 05:57:58;;;;;;;35.40;26.40;;;;;;;6.80;100.00;100254.81;176655;1258;46269;-83
2024/03/13 06:02:00;;;;;;;36.40;24.00;;;;;;;6.82;100.00;100262.65;177337;1259;58829;-83
2024/03/13 06:06:03;;;;;;;37.00;26.00;;;;;;;6.83;100.00;100262.73;177988;1256;46009;-83
2024/03/13 06:10:05;;;;;;;33.10;23.80;;;;;;;6.84;100.00;100267.60;177162;1256;46070;-82
2024/03/13 06:14:07;;;;;;;36.30;24.80;;;;;;;6.83;100.00;100272.99;177364;1256;46188;-83
2024/03/13 06:18:09;;;;;;;36.00;25.90;;;;;;;6.82;100.00;100271.65;176683;1256;46008;-82
2024/03/13 06:22:11;;;;;;;35.50;22.70;;;;;;;6.86;100.00;100272.08;176441;1260;57955;-82
2024/03/13 06:26:16;;;;;;;40.20;24.50;;;;;;;6.86;100.00;100277.15;176613;1256;46017;-82
2024/03/13 06:30:18;;;;;;;42.40;28.20;;;;;;;6.88;100.00;100280.77;176794;1256;46097;-83
2024/03/13 06:34:23;;;;;;;34.60;27.40;;;;;;;6.86;100.00;100287.40;176774;1256;46071;-82
2024/03/13 06:38:25;;;;;;;31.80;23.40;;;;;;;6.89;100.00;100291.10;177224;1262;46243;-83
2024/03/13 06:42:27;;;;;;;36.30;24.20;;;;;;;6.95;100.00;100289.45;177416;1256;59410;-84
2024/03/13 06:46:29;;;;;;;37.80;23.90;;;;;;;7.03;100.00;100291.08;177872;1257;46101;-84
2024/03/13 06:50:32;;;;;;;50.70;25.80;;;;;;;7.06;100.00;100294.55;176998;1256;46083;-82
2024/03/13 06:54:37;;;;;;;36.30;24.20;;;;;;;7.10;100.00;100297.44;177499;1256;46159;-83
2024/03/13 06:58:38;;;;;;;44.20;26.80;;;;;;;7.14;100.00;100301.08;177633;1256;46115;-83
2024/03/13 07:02:40;;;;;;;40.00;27.40;;;;;;;7.21;100.00;100309.90;178151;1256;58863;-83
2024/03/13 07:06:42;;;;;;;34.40;24.30;;;;;;;7.32;100.00;100310.98;177161;1256;46064;-84
2024/03/13 07:10:45;;;;;;;40.50;29.40;;;;;;;7.40;100.00;100311.52;177344;1256;46156;-83
2024/03/13 07:14:47;;;;;;;42.50;27.20;;;;;;;7.54;100.00;100312.86;177693;1257;46124;-83
2024/03/13 07:18:48;;;;;;;35.20;28.40;;;;;;;7.59;100.00;100318.52;176308;1257;45992;-83
2024/03/13 07:22:51;;;;;;;34.90;25.00;;;;;;;7.73;100.00;100318.25;177564;1257;59625;-83
2024/03/13 07:26:52;;;;;;;38.80;25.30;;;;;;;7.83;100.00;100320.41;176608;1256;46199;-83
2024/03/13 07:30:54;;;;;;;40.40;28.40;;;;;;;7.95;100.00;100320.25;176856;1260;45327;-83
2024/03/13 07:34:58;;;;;;;41.10;27.20;;;;;;;8.06;100.00;100319.52;177435;1257;46074;-83
2024/03/13 07:39:00;;;;;;;35.20;27.00;;;;;;;8.10;100.00;100316.53;177565;1260;46034;-83
2024/03/13 07:43:02;;;;;;;41.70;30.60;;;;;;;8.22;100.00;100320.31;177538;1256;60140;-83
2024/03/13 07:47:04;;;;;;;43.50;28.60;;;;;;;8.36;100.00;100317.40;177559;1257;46436;-83
2024/03/13 07:51:09;;;;;;;42.20;29.50;;;;;;;8.59;100.00;100316.08;178200;1256;46080;-83
2024/03/13 07:55:11;;;;;;;38.10;24.90;;;;;;;8.79;100.00;100321.06;177011;1257;46099;-83
2024/03/13 07:59:13;;;;;;;40.40;27.80;;;;;;;8.84;100.00;100324.21;177075;1256;44835;-83
2024/03/13 08:03:14;;;;;;;42.20;30.50;;;;;;;8.83;100.00;100323.73;177559;1256;58274;-83
2024/03/13 08:07:17;;;;;;;38.30;27.10;;;;;;;8.94;100.00;100322.41;176942;1257;46092;-83
2024/03/13 08:11:37;;;;;;;46.10;26.60;;;;;;;9.03;100.00;100320.69;176931;1257;44066;-83
2024/03/13 08:15:56;;;;;;;36.80;29.90;;;;;;;9.06;100.00;100320.83;176710;1257;46108;-83
2024/03/13 08:20:16;;;;;;;42.50;28.90;;;;;;;9.18;100.00;100320.11;176989;1256;46425;-83
2024/03/13 08:24:36;;;;;;;35.40;26.20;;;;;;;9.37;100.00;100321.84;176448;1259;58006;-83
2024/03/13 08:28:56;;;;;;;45.50;30.60;;;;;;;9.62;100.00;100320.15;176750;1260;46051;-84
2024/03/13 08:33:16;;;;;;;43.20;29.40;;;;;;;9.95;100.00;100325.71;176868;1260;46106;-83
2024/03/13 08:37:36;;;;;;;42.20;28.70;;;;;;;10.18;100.00;100327.83;176760;1258;46096;-83
2024/03/13 08:41:59;;;;;;;38.60;27.30;;;;;;;10.23;100.00;100337.20;177648;1256;46090;-84
2024/03/13 08:46:19;;;;;;;41.30;30.60;;;;;;;10.16;100.00;100339.53;177584;1257;58038;-82
2024/03/13 08:50:40;;;;;;;40.80;28.70;;;;;;;10.23;100.00;100343.20;177686;1260;45987;-83
2024/03/13 08:55:01;;;;;;;43.10;30.70;;;;;;;10.32;100.00;100339.38;176917;1258;46111;-83
2024/03/13 08:59:22;;;;;;;44.30;30.60;;;;;;;10.44;100.00;100340.36;177390;1256;46074;-83
2024/03/13 09:03:42;;;;;;;41.60;26.90;;;;;;;10.53;100.00;100338.57;177808;1260;46017;-83
2024/03/13 09:08:02;;;;;;;38.60;28.60;;;;;;;10.70;100.00;100340.61;176477;1260;58298;-83
2024/03/13 09:12:08;;;;;;;35.40;27.80;;;;;;;10.94;100.00;100340.94;177925;1256;46871;-83
2024/03/13 09:16:14;;;;;;;44.30;28.60;;;;;;;11.21;100.00;100338.91;177663;1257;45978;-83
2024/03/13 09:20:18;;;;;;;42.50;28.60;;;;;;;11.44;100.00;100339.27;177530;1256;45976;-84
2024/03/13 09:24:20;;;;;;;43.40;29.40;;;;;;;11.66;100.00;100344.73;177304;1256;46007;-84
2024/03/13 09:28:22;;;;;;;32.10;23.90;;;;;;;11.82;100.00;100343.00;177664;1257;59490;-84
2024/03/13 09:32:23;;;;;;;34.90;26.00;;;;;;;11.97;99.65;100340.66;177722;1256;46013;-84
2024/03/13 09:36:25;;;;;;;35.70;24.30;;;;;;;12.11;98.75;100340.90;177725;1262;46192;-83
2024/03/13 09:40:27;;;;;;;32.10;24.20;;;;;;;12.21;98.75;100339.15;177703;1261;46073;-82
2024/03/13 09:44:30;;;;;;;35.00;25.70;;;;;;;12.37;98.15;100342.95;177557;1257;44087;-84
2024/03/13 09:48:42;;;;;;;35.50;24.20;;;;;;;12.55;97.54;100339.40;177696;1260;60006;-83
2024/03/13 09:52:46;;;;;;;31.90;25.10;;;;;;;12.69;95.54;100337.06;178048;1262;46227;-83
2024/03/13 09:56:49;;;;;;;38.60;25.10;;;;;;;12.84;93.93;100340.40;177636;1260;46212;-83
2024/03/13 10:00:56;;;;;;;29.40;23.20;;;;;;;12.93;93.31;100342.90;177525;1256;46111;-83
2024/03/13 10:04:58;;;;;;;;;;;;;;;13.08;92.36;100340.72;178038;1256;46026;-84
2024/03/13 10:09:03;;;;;;;26.10;20.10;;;;;;;13.17;88.31;100340.59;177531;1256;57886;-83
2024/03/13 10:13:08;;;;;;;28.20;21.30;;;;;;;13.29;88.20;100338.57;177734;1256;45921;-84
2024/03/13 10:17:14;;;;;;;28.30;21.00;;;;;;;13.28;86.53;100343.65;177844;1258;46094;-84
2024/03/13 10:21:25;;;;;;;29.00;22.90;;;;;;;13.38;85.12;100339.73;178460;1257;45932;-84
2024/03/13 10:25:29;;;;;;;29.30;20.70;;;;;;;13.49;87.89;100341.23;178607;1257;46087;-83
2024/03/13 10:29:33;;;;;;;30.70;22.60;;;;;;;13.56;89.62;100337.41;178509;1260;58231;-84
2024/03/13 10:33:40;;;;;;;27.60;21.10;;;;;;;13.73;87.34;100337.61;177787;1260;45968;-85
2024/03/13 10:37:43;;;;;;;28.40;20.00;;;;;;;13.89;83.89;100338.61;177789;1260;46066;-84
2024/03/13 10:41:46;;;;;;;25.00;18.50;;;;;;;14.08;87.56;100333.94;177580;1258;46099;-84
2024/03/13 10:45:48;;;;;;;28.20;20.60;;;;;;;14.16;84.27;100332.30;176918;1260;45973;-83
2024/03/13 10:49:50;;;;;;;29.10;20.90;;;;;;;14.06;84.71;100336.27;177783;1260;59755;-84
2024/03/13 10:53:52;;;;;;;29.60;22.40;;;;;;;13.96;84.82;100337.42;176946;1257;45961;-83
2024/03/13 10:57:54;;;;;;;26.40;21.50;;;;;;;13.85;85.00;100335.91;176781;1257;46044;-84
2024/03/13 11:01:56;;;;;;;26.30;18.90;;;;;;;13.84;86.72;100330.81;177261;1256;181881;-83
2024/03/13 11:06:00;;;;;;;34.20;20.90;;;;;;;13.89;86.33;100328.10;177219;1261;46230;-84
2024/03/13 11:10:02;;;;;;;23.70;18.40;;;;;;;13.96;83.52;100328.70;178471;1257;58005;-83
2024/03/13 11:14:06;;;;;;;27.70;20.60;;;;;;;13.92;83.14;100331.35;177701;1260;46108;-84
2024/03/13 11:18:10;;;;;;;26.10;18.60;;;;;;;14.01;82.12;100327.63;177811;1257;44721;-84
2024/03/13 11:22:14;;;;;;;23.20;18.90;;;;;;;14.05;80.67;100324.55;176708;1258;46206;-83
2024/03/13 11:26:21;;;;;;;25.70;18.60;;;;;;;13.94;79.10;100324.42;177507;1260;46060;-84
2024/03/13 11:30:25;;;;;;;23.20;18.00;;;;;;;13.72;79.37;100323.66;177599;1260;57903;-84
2024/03/13 11:34:28;;;;;;;22.00;18.20;;;;;;;13.51;80.97;100323.25;177671;1258;44097;-84
2024/03/13 11:38:33;;;;;;;25.50;18.40;;;;;;;13.21;83.88;100321.14;177638;1260;45961;-84
2024/03/13 11:42:36;;;;;;;32.30;23.40;;;;;;;12.87;87.17;100322.27;178579;1258;46057;-84
2024/03/13 11:46:48;;;;;;;31.10;23.30;;;;;;;12.67;90.12;100314.78;177457;1260;45983;-83
2024/03/13 11:51:00;;;;;;;29.20;22.20;;;;;;;12.57;93.86;100313.45;178077;1257;59698;-83
2024/03/13 11:55:01;;;;;;;32.60;23.00;;;;;;;12.51;93.51;100312.15;177575;1257;46080;-83
2024/03/13 11:59:03;;;;;;;57.50;36.30;;;;;;;12.60;93.60;100309.02;177603;1258;46163;-83
2024/03/13 12:03:06;;;;;;;42.00;25.80;;;;;;;12.71;93.20;100302.52;176836;1257;46105;-83
2024/03/13 12:07:17;;;;;;;59.80;39.00;;;;;;;12.89;93.42;100301.61;177723;1260;46126;-83
2024/03/13 12:11:20;;;;;;;34.40;24.30;;;;;;;13.01;89.29;100298.76;177645;1258;59340;-83
2024/03/13 12:15:23;;;;;;;29.80;22.60;;;;;;;13.07;88.29;100298.44;177844;1257;46099;-83
2024/03/13 12:19:26;;;;;;;26.40;20.30;;;;;;;13.11;87.15;100293.56;177859;1257;46026;-84
2024/03/13 12:23:28;;;;;;;26.70;19.20;;;;;;;13.22;85.93;100289.36;177026;1257;46034;-84
2024/03/13 12:27:32;;;;;;;26.00;18.40;;;;;;;13.41;84.41;100289.06;177607;1257;46114;-83
2024/03/13 12:31:33;;;;;;;24.70;19.40;;;;;;;13.59;82.09;100286.90;177813;1257;59508;-83
2024/03/13 12:35:36;;;;;;;26.00;18.80;;;;;;;13.74;79.74;100280.99;177535;1257;45959;-83
2024/03/13 12:39:39;;;;;;;26.00;20.50;;;;;;;13.92;79.40;100280.41;177604;1257;44094;-83
2024/03/13 12:43:41;;;;;;;24.70;19.70;;;;;;;14.08;78.11;100271.86;177881;1257;46031;-84
2024/03/13 12:47:47;;;;;;;30.10;20.60;;;;;;;14.10;76.96;100268.31;177476;1257;46195;-83
2024/03/13 12:51:53;;;;;;;25.90;19.20;;;;;;;14.19;78.86;100266.59;177621;1256;58692;-84
2024/03/13 12:55:55;;;;;;;24.10;19.40;;;;;;;14.29;77.19;100271.48;177755;1258;46099;-84
2024/03/13 12:59:58;;;;;;;25.00;19.10;;;;;;;14.38;76.15;100266.49;177799;1257;46111;-84
2024/03/13 13:04:00;;;;;;;25.70;19.30;;;;;;;14.51;75.80;100265.77;177591;1256;46001;-83
2024/03/13 13:08:02;;;;;;;30.60;20.60;;;;;;;14.60;74.66;100263.48;177424;1256;45971;-84
2024/03/13 13:12:12;;;;;;;29.20;21.00;;;;;;;14.70;76.17;100266.23;177547;1257;58015;-84
2024/03/13 13:16:14;;;;;;;29.60;19.80;;;;;;;14.77;74.66;100265.89;177703;1257;46068;-84
2024/03/13 13:20:18;;;;;;;26.40;18.90;;;;;;;14.79;72.64;100269.49;177745;1257;46034;-84
2024/03/13 13:24:20;;;;;;;25.30;19.10;;;;;;;14.70;72.19;100268.55;177700;1256;45966;-84
2024/03/13 13:28:23;;;;;;;26.70;18.70;;;;;;;14.70;72.92;100270.63;177588;1256;46067;-84
2024/03/13 13:32:28;;;;;;;28.30;18.80;;;;;;;14.78;72.86;100269.02;177591;1257;58531;-84
2024/03/13 13:36:30;;;;;;;28.90;21.50;;;;;;;14.81;73.22;100264.92;177357;1256;46212;-84
2024/03/13 13:40:32;;;;;;;24.30;19.60;;;;;;;14.92;73.81;100264.92;177982;1259;45957;-84
2024/03/13 13:44:34;;;;;;;23.90;19.00;;;;;;;14.97;72.54;100266.27;177297;1256;45870;-83
2024/03/13 13:48:36;;;;;;;28.00;18.80;;;;;;;14.98;72.15;100267.20;179533;1257;46093;-83
2024/03/13 13:52:38;;;;;;;29.10;19.70;;;;;;;14.94;71.83;100264.62;178216;1258;58648;-84
2024/03/13 13:56:40;;;;;;;30.80;22.70;;;;;;;14.91;71.47;100263.60;177597;1256;46204;-84
2024/03/13 14:00:42;;;;;;;26.80;21.80;;;;;;;14.92;74.20;100261.39;177649;1260;46553;-84
2024/03/13 14:04:44;;;;;;;25.40;21.00;;;;;;;14.79;74.28;100264.85;178094;1258;46122;-83
2024/03/13 14:08:45;;;;;;;33.40;22.40;;;;;;;14.73;75.04;100268.23;177630;1257;46143;-83
2024/03/13 14:12:48;;;;;;;39.20;25.30;;;;;;;14.70;75.69;100264.38;178042;1256;57938;-83
2024/03/13 14:16:51;;;;;;;32.60;23.20;;;;;;;14.66;75.94;100266.20;178501;1257;46092;-84
2024/03/13 14:20:54;;;;;;;25.60;21.30;;;;;;;14.57;76.49;100269.25;178714;1257;46092;-83
2024/03/13 14:24:56;;;;;;;29.50;21.90;;;;;;;14.50;76.47;100273.31;178222;1257;46103;-84
2024/03/13 14:28:57;;;;;;;39.80;26.00;;;;;;;14.49;77.62;100274.23;178152;1256;46021;-84
2024/03/13 14:32:59;;;;;;;30.80;24.20;;;;;;;14.45;76.17;100272.42;178682;1256;59542;-82
2024/03/13 14:37:01;;;;;;;31.00;26.20;;;;;;;14.44;75.42;100272.88;178576;1256;46017;-83
2024/03/13 14:41:07;;;;;;;27.60;22.00;;;;;;;14.44;76.50;100270.33;177648;1258;46006;-83
2024/03/13 14:45:09;;;;;;;35.50;23.10;;;;;;;14.47;75.50;100268.66;177956;1257;46095;-83
2024/03/13 14:49:13;;;;;;;29.80;22.40;;;;;;;14.49;75.92;100266.54;177601;1256;46085;-82
2024/03/13 14:53:15;;;;;;;39.60;24.10;;;;;;;14.44;75.29;100266.06;177766;1256;59575;-83
2024/03/13 14:57:18;;;;;;;41.30;25.70;;;;;;;14.37;75.34;100263.20;177477;1256;46048;-82
2024/03/13 15:01:20;;;;;;;36.80;24.30;;;;;;;14.29;76.01;100264.85;178257;1256;46078;-83
2024/03/13 15:05:23;;;;;;;31.10;22.20;;;;;;;14.18;76.38;100263.63;177985;1258;46088;-82
2024/03/13 15:09:25;;;;;;;31.10;22.30;;;;;;;14.07;76.38;100263.64;177734;1257;46019;-82
2024/03/13 15:13:28;;;;;;;35.30;25.60;;;;;;;13.94;76.40;100267.85;178649;1257;58281;-82
2024/03/13 15:17:35;;;;;;;35.70;24.00;;;;;;;13.83;77.70;100267.64;177844;1257;46064;-83
2024/03/13 15:21:36;;;;;;;36.00;23.40;;;;;;;13.71;80.14;100268.65;178560;1256;46099;-82
2024/03/13 15:25:39;;;;;;;56.30;37.10;;;;;;;13.67;81.93;100268.49;178466;1256;45947;-82
2024/03/13 15:29:41;;;;;;;32.50;24.80;;;;;;;13.62;83.35;100267.33;178182;1256;44289;-82
2024/03/13 15:33:43;;;;;;;34.00;25.00;;;;;;;13.58;84.41;100270.81;177935;1260;58733;-83
2024/03/13 15:37:45;;;;;;;32.30;24.10;;;;;;;13.55;84.04;100271.60;178474;1256;46201;-82
2024/03/13 15:41:48;;;;;;;37.30;25.80;;;;;;;13.55;84.96;100267.41;177553;1256;46273;-82
2024/03/13 15:45:49;;;;;;;35.90;26.40;;;;;;;13.53;86.42;100268.84;177528;1257;46125;-83
2024/03/13 15:49:51;;;;;;;31.80;21.10;;;;;;;13.52;86.56;100269.52;177596;1258;46003;-84
2024/03/13 15:53:53;;;;;;;35.50;24.10;;;;;;;13.51;85.93;100266.38;177809;1256;58093;-84
2024/03/13 15:57:55;;;;;;;38.10;24.60;;;;;;;13.47;86.91;100264.80;177760;1256;46000;-84
2024/03/13 16:01:57;;;;;;;33.10;24.70;;;;;;;13.40;86.99;100267.23;177924;1256;45955;-84
2024/03/13 16:05:58;;;;;;;32.20;24.40;;;;;;;13.35;87.04;100266.80;177833;1258;46028;-84
2024/03/13 16:10:01;;;;;;;36.30;24.30;;;;;;;13.28;87.79;100266.89;177575;1260;44883;-84
2024/03/13 16:14:05;;;;;;;36.00;25.70;;;;;;;13.26;87.64;100264.95;177614;1256;59885;-84
2024/03/13 16:18:07;;;;;;;43.20;27.60;;;;;;;13.20;86.89;100270.48;177711;1257;46089;-84
2024/03/13 16:22:09;;;;;;;39.10;25.10;;;;;;;13.13;86.31;100272.02;177375;1259;45969;-84
2024/03/13 16:26:11;;;;;;;31.10;23.20;;;;;;;13.09;86.01;100274.56;177403;1256;46118;-83
2024/03/13 16:30:20;;;;;;;36.00;26.70;;;;;;;13.00;86.42;100277.00;177774;1256;46116;-83
2024/03/13 16:34:22;;;;;;;36.30;24.30;;;;;;;12.91;87.00;100274.75;177811;1260;59651;-84
2024/03/13 16:38:24;;;;;;;42.40;28.60;;;;;;;12.85;87.85;100277.95;178460;1256;46073;-84
2024/03/13 16:42:26;;;;;;;44.10;28.30;;;;;;;12.77;89.88;100278.21;177874;1257;45999;-84
2024/03/13 16:46:29;;;;;;;33.70;23.30;;;;;;;12.67;89.85;100280.30;177747;1256;45985;-83
2024/03/13 16:50:31;;;;;;;38.10;26.00;;;;;;;12.58;91.21;100280.73;177713;1256;46117;-84
2024/03/13 16:54:35;;;;;;;55.10;38.30;;;;;;;12.38;96.54;100281.49;176849;1260;58226;-85
2024/03/13 16:58:37;;;;;;;75.00;47.00;;;;;;;12.13;100.00;100289.41;177327;1257;46114;-83
2024/03/13 17:02:39;;;;;;;51.40;36.00;;;;;;;11.99;100.00;100290.06;176758;1257;46096;-84
2024/03/13 17:06:42;;;;;;;35.10;26.70;;;;;;;11.92;100.00;100290.12;177648;1258;45980;-84
2024/03/13 17:10:46;;;;;;;41.00;28.60;;;;;;;11.91;100.00;100288.41;177379;1259;46081;-84
2024/03/13 17:14:48;;;;;;;46.70;31.00;;;;;;;11.86;100.00;100290.04;177687;1257;57078;-84
2024/03/13 17:18:50;;;;;;;55.00;31.70;;;;;;;11.72;100.00;100295.20;177542;1260;46432;-84
2024/03/13 17:22:53;;;;;;;66.00;40.40;;;;;;;11.69;100.00;100302.54;177623;1259;46101;-84
2024/03/13 17:26:55;;;;;;;62.50;41.20;;;;;;;11.68;100.00;100302.65;177950;1256;45977;-84
2024/03/13 17:30:58;;;;;;;62.70;39.50;;;;;;;11.53;100.00;100311.70;177710;1256;46041;-85
2024/03/13 17:35:00;;;;;;;68.70;44.60;;;;;;;11.40;100.00;100316.05;178096;1256;59621;-84
2024/03/13 17:39:04;;;;;;;55.00;38.10;;;;;;;11.31;100.00;100318.05;178125;1257;46086;-84
2024/03/13 17:43:07;;;;;;;73.70;41.90;;;;;;;11.30;100.00;100317.59;177437;1256;46035;-84
2024/03/13 17:47:10;;;;;;;71.70;46.70;;;;;;;11.31;100.00;100313.77;177659;1256;46226;-84
2024/03/13 17:51:13;;;;;;;81.70;49.10;;;;;;;11.29;100.00;100321.75;177564;1257;46118;-83
2024/03/13 17:55:16;;;;;;;70.80;46.40;;;;;;;11.29;100.00;100324.02;177496;1256;58283;-84
2024/03/13 17:59:19;;;;;;;69.80;44.30;;;;;;;11.26;100.00;100325.18;177341;1256;46180;-84
2024/03/13 18:03:20;;;;;;;67.40;40.80;;;;;;;11.17;100.00;100327.30;177495;1258;46141;-84
2024/03/13 18:07:27;;;;;;;51.30;35.80;;;;;;;11.09;100.00;100328.92;177851;1257;46008;-84
2024/03/13 18:11:29;;;;;;;53.80;36.60;;;;;;;11.02;100.00;100325.77;177658;1259;46090;-84
2024/03/13 18:15:31;;;;;;;60.10;44.80;;;;;;;10.94;100.00;100324.45;177560;1256;58210;-84
2024/03/13 18:19:32;;;;;;;97.80;63.70;;;;;;;10.96;100.00;100322.64;177537;1256;46152;-84
2024/03/13 18:23:35;;;;;;;77.10;55.60;;;;;;;10.96;100.00;100329.64;177659;1256;45947;-84
2024/03/13 18:27:37;;;;;;;50.50;35.70;;;;;;;10.95;100.00;100326.10;177427;1256;45980;-83